createdAt,value
2022-09-22T00:00:59.855Z,13.95
2022-09-22T00:03:31.181Z,14.65
2022-09-22T00:06:03.470Z,14.73
2022-09-22T00:08:32.487Z,14.90
2022-09-22T00:11:17.012Z,15.32
2022-09-22T00:14:00.105Z,15.23
2022-09-22T00:16:30.391Z,15.05
2022-09-22T00:18:57.575Z,14.57
2022-09-22T00:21:27.623Z,15.60
2022-09-22T00:23:54.792Z,15.32
2022-09-22T00:26:23.570Z,14.73
2022-09-22T00:28:51.309Z,15.50
2022-09-22T00:31:23.695Z,16.25
2022-09-22T00:33:52.649Z,15.68
2022-09-22T00:36:25.512Z,15.88
2022-09-22T00:38:53.943Z,15.77
2022-09-22T00:41:38.540Z,16.27
2022-09-22T00:44:31.531Z,15.27
2022-09-22T00:47:13.287Z,15.23
2022-09-22T00:50:05.451Z,14.90
2022-09-22T00:52:40.906Z,15.00
2022-09-22T00:55:14.209Z,15.38
2022-09-22T00:57:44.067Z,14.85
2022-09-22T01:00:12.731Z,15.73
2022-09-22T01:02:39.999Z,15.18
2022-09-22T01:05:08.548Z,15.15
2022-09-22T01:07:36.071Z,14.95
2022-09-22T01:10:02.854Z,14.77
2022-09-22T01:12:31.578Z,14.65
2022-09-22T01:15:10.755Z,15.10
2022-09-22T01:17:37.337Z,15.52
2022-09-22T01:20:33.386Z,15.00
2022-09-22T01:23:15.487Z,15.30
2022-09-22T01:26:09.737Z,14.73
2022-09-22T01:28:42.183Z,15.05
2022-09-22T01:31:34.850Z,15.10
2022-09-22T01:34:23.453Z,15.32
2022-09-22T01:37:04.249Z,15.23
2022-09-22T01:39:38.433Z,14.85
2022-09-22T01:42:32.885Z,14.95
2022-09-22T01:45:10.400Z,15.35
2022-09-22T01:47:43.789Z,15.60
2022-09-22T01:50:25.134Z,15.52
2022-09-22T01:52:53.675Z,15.45
2022-09-22T01:55:25.519Z,15.50
2022-09-22T01:58:05.271Z,15.13
2022-09-22T02:00:32.559Z,15.48
2022-09-22T02:03:24.680Z,15.20
2022-09-22T02:05:59.645Z,15.25
2022-09-22T02:11:09.651Z,13.25
2022-09-22T02:13:36.884Z,13.73
2022-09-22T02:16:05.311Z,13.18
2022-09-22T02:18:49.537Z,12.60
2022-09-22T02:21:17.614Z,12.98
2022-09-22T02:23:46.392Z,13.25
2022-09-22T02:26:23.526Z,13.13
2022-09-22T02:28:54.233Z,12.75
2022-09-22T02:31:24.709Z,14.20
2022-09-22T02:33:52.057Z,14.18
2022-09-22T02:36:23.839Z,14.88
2022-09-22T02:39:01.068Z,14.88
2022-09-22T02:41:51.112Z,14.80
2022-09-22T02:44:46.908Z,14.93
2022-09-22T02:49:44.344Z,15.68
2022-09-22T02:52:13.024Z,15.13
2022-09-22T02:54:39.913Z,14.85
2022-09-22T02:57:07.219Z,15.30
2022-09-22T02:59:33.867Z,15.55
2022-09-22T03:02:00.547Z,15.23
2022-09-22T03:04:27.570Z,15.25
2022-09-22T03:06:56.958Z,16.35
2022-09-22T03:09:24.042Z,15.45
2022-09-22T03:11:50.719Z,15.25
2022-09-22T03:14:17.394Z,15.27
2022-09-22T03:16:43.996Z,15.95
2022-09-22T03:19:10.976Z,15.20
2022-09-22T03:21:38.048Z,15.05
2022-09-22T03:24:04.848Z,14.57
2022-09-22T03:26:31.566Z,14.70
2022-09-22T03:28:58.196Z,14.52
2022-09-22T03:31:25.047Z,14.63
2022-09-22T03:33:52.856Z,15.10
2022-09-22T03:36:19.883Z,13.85
2022-09-22T03:38:46.546Z,14.15
2022-09-22T03:41:13.215Z,14.10
2022-09-22T03:43:39.845Z,14.02
2022-09-22T03:46:06.781Z,14.02
2022-09-22T03:48:33.611Z,14.63
2022-09-22T03:51:00.546Z,14.75
2022-09-22T03:53:27.787Z,15.15
2022-09-22T03:56:07.972Z,14.98
2022-09-22T03:58:35.069Z,15.02
2022-09-22T04:01:01.909Z,15.93
2022-09-22T04:03:29.502Z,15.95
2022-09-22T04:05:56.586Z,16.38
2022-09-22T04:08:23.438Z,15.82
2022-09-22T04:10:50.322Z,16.80
2022-09-22T04:13:17.038Z,16.15
2022-09-22T04:15:46.086Z,16.85
2022-09-22T04:18:14.344Z,16.17
2022-09-22T04:20:43.601Z,15.80
2022-09-22T04:23:11.594Z,15.43
2022-09-22T04:25:39.854Z,15.85
2022-09-22T04:28:07.046Z,15.55
2022-09-22T04:30:34.631Z,15.25
2022-09-22T04:33:01.369Z,16.17
2022-09-22T04:35:28.540Z,15.65
2022-09-22T04:37:55.865Z,15.82
2022-09-22T04:40:24.118Z,15.80
2022-09-22T04:42:51.359Z,16.02
2022-09-22T04:45:18.098Z,16.27
2022-09-22T04:47:49.761Z,15.27
2022-09-22T04:50:20.405Z,16.17
2022-09-22T04:52:50.230Z,16.70
2022-09-22T04:55:20.526Z,15.48
2022-09-22T04:57:52.243Z,15.73
2022-09-22T05:00:19.893Z,16.55
2022-09-22T05:02:46.650Z,18.15
2022-09-22T05:05:13.412Z,19.02
2022-09-22T05:07:47.511Z,16.58
2022-09-22T05:10:16.386Z,17.60
2022-09-22T05:12:43.767Z,17.05
2022-09-22T05:15:12.515Z,16.70
2022-09-22T05:17:46.239Z,17.38
2022-09-22T05:20:12.946Z,16.60
2022-09-22T05:22:40.216Z,17.27
2022-09-22T05:25:09.103Z,17.25
2022-09-22T05:27:35.787Z,17.83
2022-09-22T05:30:02.428Z,17.45
2022-09-22T05:32:29.529Z,17.40
2022-09-22T05:34:57.061Z,15.77
2022-09-22T05:37:23.733Z,17.33
2022-09-22T05:39:50.462Z,16.35
2022-09-22T05:42:17.173Z,15.52
2022-09-22T05:44:43.782Z,17.83
2022-09-22T05:47:10.380Z,16.77
2022-09-22T05:49:37.042Z,16.63
2022-09-22T05:52:03.709Z,16.70
2022-09-22T05:54:30.321Z,17.40
2022-09-22T05:56:56.997Z,18.17
2022-09-22T05:59:23.651Z,17.50
2022-09-22T06:01:50.338Z,18.65
2022-09-22T06:04:17.140Z,20.35
2022-09-22T06:06:43.918Z,20.98
2022-09-22T06:09:10.536Z,23.73
2022-09-22T06:11:37.332Z,24.33
2022-09-22T06:14:03.966Z,26.50
2022-09-22T06:16:31.714Z,24.48
2022-09-22T06:18:58.822Z,25.73
2022-09-22T06:21:25.801Z,25.25
2022-09-22T06:23:52.583Z,27.60
2022-09-22T06:26:19.881Z,26.70
2022-09-22T06:28:46.956Z,26.38
2022-09-22T06:31:15.057Z,27.90
2022-09-22T06:33:48.113Z,25.38
2022-09-22T06:36:23.851Z,25.60
2022-09-22T06:38:50.934Z,23.60
2022-09-22T06:41:17.587Z,24.77
2022-09-22T06:43:48.687Z,24.35
2022-09-22T06:46:18.461Z,23.88
2022-09-22T06:48:45.240Z,23.92
2022-09-22T06:51:13.910Z,22.48
2022-09-22T06:53:40.840Z,19.42
2022-09-22T06:56:08.465Z,20.40
2022-09-22T06:58:52.550Z,23.85
2022-09-22T07:01:24.693Z,23.23
2022-09-22T07:03:52.317Z,21.42
2022-09-22T07:06:20.383Z,19.83
2022-09-22T07:08:48.701Z,17.05
2022-09-22T07:11:17.952Z,17.83
2022-09-22T07:13:46.180Z,14.68
2022-09-22T07:16:18.940Z,15.27
2022-09-22T07:18:51.738Z,14.30
2022-09-22T07:21:22.688Z,13.60
2022-09-22T07:23:52.077Z,15.65
2022-09-22T07:26:26.343Z,15.38
2022-09-22T07:28:53.797Z,13.63
2022-09-22T07:31:26.291Z,11.00
2022-09-22T07:33:56.193Z,10.75
2022-09-22T07:36:26.019Z,11.38
2022-09-22T07:38:54.980Z,13.15
2022-09-22T07:41:27.427Z,14.50
2022-09-22T07:43:57.451Z,19.73
2022-09-22T07:46:24.374Z,19.17
2022-09-22T07:48:51.222Z,20.08
2022-09-22T07:51:23.288Z,21.23
2022-09-22T07:54:09.475Z,21.10
2022-09-22T07:56:41.392Z,21.20
2022-09-22T07:59:12.906Z,21.95
2022-09-22T08:01:47.570Z,21.92
2022-09-22T08:04:16.678Z,22.23
2022-09-22T08:06:45.222Z,24.17
2022-09-22T08:09:13.314Z,25.58
2022-09-22T08:11:40.675Z,25.17
2022-09-22T08:14:11.114Z,23.92
2022-09-22T08:16:39.882Z,24.40
2022-09-22T08:19:14.964Z,24.58
2022-09-22T08:24:22.465Z,25.42
2022-09-22T08:26:50.765Z,24.45
2022-09-22T08:29:17.422Z,25.02
2022-09-22T08:31:47.590Z,23.95
2022-09-22T08:34:16.171Z,23.83
2022-09-22T08:36:46.333Z,24.23
2022-09-22T08:39:13.291Z,23.73
2022-09-22T08:42:08.301Z,25.02
2022-09-22T08:45:27.159Z,24.95
2022-09-22T08:48:18.041Z,24.05
2022-09-22T08:51:23.260Z,24.65
2022-09-22T08:53:51.501Z,24.85
2022-09-22T08:56:30.723Z,24.80
2022-09-22T08:59:14.792Z,24.02
2022-09-22T09:01:49.628Z,24.10
2022-09-22T09:04:36.567Z,24.15
2022-09-22T09:07:09.935Z,25.05
2022-09-22T09:09:48.900Z,25.30
2022-09-22T09:12:34.512Z,25.75
2022-09-22T09:15:15.131Z,25.33
2022-09-22T09:17:45.464Z,25.30
2022-09-22T09:20:30.677Z,26.55
2022-09-22T09:22:59.521Z,24.90
2022-09-22T09:25:38.080Z,24.13
2022-09-22T09:28:07.597Z,25.70
2022-09-22T09:30:46.329Z,25.40
2022-09-22T09:33:28.926Z,25.80
2022-09-22T09:35:56.250Z,26.00
2022-09-22T09:38:38.264Z,26.67
2022-09-22T09:41:19.371Z,25.80
2022-09-22T09:43:46.069Z,25.55
2022-09-22T09:46:26.657Z,26.45
2022-09-22T09:49:16.787Z,28.10
2022-09-22T09:51:46.948Z,26.52
2022-09-22T09:54:17.580Z,25.88
2022-09-22T09:57:08.305Z,25.88
2022-09-22T09:59:55.775Z,26.73
2022-09-22T10:02:29.037Z,25.92
2022-09-22T10:04:59.676Z,26.55
2022-09-22T10:07:28.204Z,25.48
2022-09-22T10:09:56.262Z,26.60
2022-09-22T10:12:28.925Z,25.83
2022-09-22T10:14:58.879Z,25.08
2022-09-22T10:17:28.678Z,25.77
2022-09-22T10:20:18.197Z,25.02
2022-09-22T10:22:45.636Z,25.65
2022-09-22T10:25:31.847Z,27.88
2022-09-22T10:27:59.488Z,26.75
2022-09-22T10:30:27.296Z,26.20
2022-09-22T10:33:20.578Z,26.60
2022-09-22T10:36:09.212Z,26.15
2022-09-22T10:38:41.399Z,26.80
2022-09-22T10:41:19.242Z,26.10
2022-09-22T10:44:15.437Z,27.95
2022-09-22T10:47:03.155Z,27.40
2022-09-22T10:49:31.099Z,25.75
2022-09-22T10:52:22.853Z,25.88
2022-09-22T10:55:12.837Z,27.08
2022-09-22T10:58:00.776Z,26.45
2022-09-22T11:00:28.960Z,27.20
2022-09-22T11:02:55.550Z,26.77
2022-09-22T11:06:08.651Z,26.40
2022-09-22T11:09:08.746Z,25.13
2022-09-22T11:12:31.180Z,25.33
2022-09-22T11:15:00.978Z,25.40
2022-09-22T11:17:33.570Z,26.80
2022-09-22T11:20:30.001Z,27.40
2022-09-22T11:23:35.620Z,27.67
2022-09-22T11:26:05.291Z,26.75
2022-09-22T11:28:57.410Z,27.23
2022-09-22T11:31:48.447Z,27.80
2022-09-22T11:34:18.539Z,26.33
2022-09-22T11:37:01.245Z,25.02
2022-09-22T11:39:49.394Z,27.80
2022-09-22T11:42:30.956Z,26.73
2022-09-22T11:45:28.375Z,27.83
2022-09-22T11:48:21.516Z,25.60
2022-09-22T11:51:00.785Z,26.40
2022-09-22T11:53:40.049Z,26.17
2022-09-22T11:56:34.841Z,26.05
2022-09-22T11:59:24.484Z,25.70
2022-09-22T12:01:53.436Z,26.95
2022-09-22T12:04:32.061Z,25.77
2022-09-22T12:07:03.825Z,26.23
2022-09-22T12:09:37.309Z,25.58
2022-09-22T12:12:06.354Z,26.08
2022-09-22T12:14:34.994Z,27.10
2022-09-22T12:17:13.023Z,27.75
2022-09-22T12:20:02.198Z,27.92
2022-09-22T12:22:32.523Z,27.45
2022-09-22T12:24:59.152Z,27.27
2022-09-22T12:27:28.177Z,28.15
2022-09-22T12:30:24.077Z,27.52
2022-09-22T12:32:51.348Z,27.85
2022-09-22T12:35:28.723Z,28.08
2022-09-22T12:38:02.058Z,28.17
2022-09-22T12:40:41.205Z,28.75
2022-09-22T12:43:17.919Z,28.05
2022-09-22T12:45:45.648Z,28.25
2022-09-22T12:48:19.341Z,27.13
2022-09-22T12:50:46.409Z,27.20
2022-09-22T12:53:22.279Z,27.50
2022-09-22T12:55:50.189Z,28.02
2022-09-22T12:58:23.626Z,27.45
2022-09-22T13:00:56.192Z,28.02
2022-09-22T13:03:30.068Z,27.42
2022-09-22T13:06:03.325Z,26.30
2022-09-22T13:08:33.038Z,27.17
2022-09-22T13:11:00.883Z,26.48
2022-09-22T13:13:38.555Z,26.35
2022-09-22T13:16:14.358Z,26.80
2022-09-22T13:18:42.290Z,25.52
2022-09-22T13:21:11.890Z,26.02
2022-09-22T13:24:02.592Z,25.80
2022-09-22T13:26:34.409Z,26.38
2022-09-22T13:29:19.061Z,26.17
2022-09-22T13:31:57.770Z,27.08
2022-09-22T13:34:31.982Z,24.55
2022-09-22T13:37:07.753Z,24.77
2022-09-22T13:39:40.402Z,25.88
2022-09-22T13:42:36.786Z,24.95
2022-09-22T13:45:08.712Z,27.08
2022-09-22T13:47:37.004Z,24.70
2022-09-22T13:50:19.389Z,25.23
2022-09-22T13:52:50.534Z,24.83
2022-09-22T13:55:30.359Z,25.17
2022-09-22T13:57:59.167Z,24.98
2022-09-22T14:00:41.384Z,24.80
2022-09-22T14:03:21.392Z,26.52
2022-09-22T14:05:53.793Z,24.63
2022-09-22T14:08:27.525Z,24.42
2022-09-22T14:10:54.712Z,24.75
2022-09-22T14:13:52.543Z,23.70
2022-09-22T14:16:29.768Z,23.77
2022-09-22T14:19:03.578Z,24.25
2022-09-22T14:21:42.925Z,24.23
2022-09-22T14:24:13.370Z,24.90
2022-09-22T14:26:44.596Z,23.80
2022-09-22T14:29:23.769Z,25.77
2022-09-22T14:32:00.330Z,24.63
2022-09-22T14:34:31.138Z,23.73
2022-09-22T14:36:59.002Z,23.35
2022-09-22T14:39:35.707Z,24.95
2022-09-22T14:42:16.381Z,24.23
2022-09-22T14:44:45.999Z,24.88
2022-09-22T14:47:29.730Z,24.52
2022-09-22T14:50:19.742Z,25.55
2022-09-22T14:52:58.670Z,25.75
2022-09-22T14:55:42.839Z,25.45
2022-09-22T14:58:28.900Z,24.45
2022-09-22T15:01:13.938Z,25.52
2022-09-22T15:03:43.686Z,24.10
2022-09-22T15:06:13.451Z,23.52
2022-09-22T15:08:42.500Z,23.83
2022-09-22T15:11:09.460Z,23.75
2022-09-22T15:13:47.486Z,23.92
2022-09-22T15:16:37.743Z,24.20
2022-09-22T15:19:05.422Z,24.08
2022-09-22T15:21:37.771Z,23.83
2022-09-22T15:24:05.545Z,25.17
2022-09-22T15:26:33.155Z,24.13
2022-09-22T15:29:01.536Z,24.15
2022-09-22T15:31:29.570Z,24.95
2022-09-22T15:33:59.955Z,24.80
2022-09-22T15:36:30.405Z,26.30
2022-09-22T15:39:01.083Z,24.85
2022-09-22T15:41:28.052Z,25.02
2022-09-22T15:43:54.978Z,24.73
2022-09-22T15:46:33.582Z,25.90
2022-09-22T15:49:03.915Z,23.92
2022-09-22T15:51:31.516Z,25.30
2022-09-22T15:53:58.415Z,25.90
2022-09-22T15:56:29.455Z,25.08
2022-09-22T15:59:01.855Z,25.50
2022-09-22T16:01:29.577Z,25.88
2022-09-22T16:03:59.863Z,24.83
2022-09-22T16:06:27.101Z,25.27
2022-09-22T16:08:55.157Z,26.00
2022-09-22T16:11:28.183Z,25.85
2022-09-22T16:14:01.561Z,25.70
2022-09-22T16:16:29.675Z,25.65
2022-09-22T16:18:57.204Z,25.10
2022-09-22T16:21:33.044Z,25.83
2022-09-22T16:24:03.811Z,23.02
2022-09-22T16:26:31.668Z,23.85
2022-09-22T16:28:58.993Z,25.38
2022-09-22T16:31:25.904Z,24.15
2022-09-22T16:33:58.065Z,24.08
2022-09-22T16:36:27.061Z,23.55
2022-09-22T16:38:55.248Z,23.23
2022-09-22T16:41:27.836Z,26.98
2022-09-22T16:43:55.940Z,23.63
2022-09-22T16:46:26.691Z,22.88
2022-09-22T16:49:05.241Z,22.98
2022-09-22T16:51:33.554Z,23.02
2022-09-22T16:54:00.356Z,23.17
2022-09-22T16:56:30.831Z,24.10
2022-09-22T16:58:58.099Z,24.42
2022-09-22T17:01:26.306Z,27.25
2022-09-22T17:03:53.687Z,23.52
2022-09-22T17:06:25.322Z,23.73
2022-09-22T17:08:53.522Z,23.90
2022-09-22T17:11:23.217Z,24.17
2022-09-22T17:13:50.686Z,21.40
2022-09-22T17:16:20.162Z,21.92
2022-09-22T17:18:47.039Z,22.85
2022-09-22T17:21:19.716Z,24.65
2022-09-22T17:23:46.363Z,24.05
2022-09-22T17:26:12.959Z,25.50
2022-09-22T17:28:40.772Z,31.30
2022-09-22T17:31:07.869Z,26.15
2022-09-22T17:33:36.719Z,28.77
2022-09-22T17:36:05.719Z,28.98
2022-09-22T17:38:36.077Z,26.90
2022-09-22T17:41:10.033Z,28.88
2022-09-22T17:43:39.837Z,28.58
2022-09-22T17:46:07.725Z,42.60
2022-09-22T17:48:52.897Z,31.08
2022-09-22T17:52:00.441Z,31.40
2022-09-22T17:54:50.891Z,27.13
2022-09-22T17:57:24.991Z,25.35
2022-09-22T17:59:52.341Z,24.80
2022-09-22T18:02:20.704Z,24.67
2022-09-22T18:04:47.784Z,27.38
2022-09-22T18:07:19.986Z,26.98
2022-09-22T18:09:49.148Z,26.35
2022-09-22T18:12:21.512Z,26.42
2022-09-22T18:14:50.154Z,28.67
2022-09-22T18:17:22.006Z,28.02
2022-09-22T18:19:48.613Z,30.08
2022-09-22T18:22:21.138Z,29.38
2022-09-22T18:24:49.726Z,24.98
2022-09-22T18:27:19.522Z,30.52
2022-09-22T18:29:49.842Z,24.15
2022-09-22T18:32:19.604Z,58.35
2022-09-22T18:34:47.395Z,51.90
2022-09-22T18:37:15.600Z,30.90
2022-09-22T18:39:44.828Z,31.52
2022-09-22T18:42:12.528Z,23.02
2022-09-22T18:44:41.068Z,21.67
2022-09-22T18:47:12.916Z,20.20
2022-09-22T18:49:40.641Z,22.95
2022-09-22T18:52:08.386Z,23.25
2022-09-22T18:54:42.814Z,36.25
2022-09-22T18:57:13.076Z,36.15
2022-09-22T18:59:40.187Z,33.17
2022-09-22T19:02:11.259Z,28.95
2022-09-22T19:04:38.788Z,28.25
2022-09-22T19:07:26.386Z,26.30
2022-09-22T19:09:53.037Z,25.52
2022-09-22T19:12:21.449Z,23.92
2022-09-22T19:14:56.042Z,23.55
2022-09-22T19:17:26.827Z,27.05
2022-09-22T19:19:53.689Z,23.92
2022-09-22T19:22:22.644Z,24.88
2022-09-22T19:24:50.775Z,38.42
2022-09-22T19:27:19.423Z,35.25
2022-09-22T19:29:46.067Z,28.80
2022-09-22T19:32:12.870Z,37.65
2022-09-22T19:34:39.519Z,19.98
2022-09-22T19:37:06.882Z,21.80
2022-09-22T19:39:33.638Z,28.52
2022-09-22T19:42:00.329Z,25.15
2022-09-22T19:44:29.537Z,25.73
2022-09-22T19:46:56.398Z,22.60
2022-09-22T19:49:23.937Z,20.60
2022-09-22T19:51:50.628Z,18.15
2022-09-22T19:54:18.307Z,17.13
2022-09-22T19:56:44.917Z,16.17
2022-09-22T19:59:11.792Z,15.60
2022-09-22T20:01:41.545Z,15.07
2022-09-22T20:04:19.890Z,15.18
2022-09-22T20:06:48.593Z,16.48
2022-09-22T20:09:16.093Z,15.82
2022-09-22T20:11:48.433Z,16.50
2022-09-22T20:14:22.380Z,16.58
2022-09-22T20:17:06.786Z,16.87
2022-09-22T20:19:38.206Z,15.55
2022-09-22T20:22:27.583Z,15.68
2022-09-22T20:25:00.337Z,15.10
2022-09-22T20:27:30.837Z,16.48
2022-09-22T20:29:57.997Z,15.52
2022-09-22T20:32:26.505Z,16.05
2022-09-22T20:34:54.236Z,15.40
2022-09-22T20:37:21.888Z,16.38
2022-09-22T20:39:48.538Z,16.67
2022-09-22T20:42:15.741Z,16.75
2022-09-22T20:44:42.782Z,17.65
2022-09-22T20:47:14.419Z,15.43
2022-09-22T20:49:41.767Z,15.38
2022-09-22T20:52:12.460Z,14.32
2022-09-22T20:54:39.082Z,13.95
2022-09-22T20:57:05.757Z,13.82
2022-09-22T20:59:33.161Z,13.30
2022-09-22T21:02:00.795Z,13.27
2022-09-22T21:04:28.933Z,13.23
2022-09-22T21:06:58.447Z,12.43
2022-09-22T21:09:45.619Z,12.93
2022-09-22T21:12:13.370Z,12.20
2022-09-22T21:14:42.055Z,13.40
2022-09-22T21:17:08.766Z,13.02
2022-09-22T21:19:36.349Z,12.90
2022-09-22T21:22:04.704Z,12.32
2022-09-22T21:24:32.408Z,13.45
2022-09-22T21:26:59.596Z,13.20
2022-09-22T21:29:26.275Z,13.20
2022-09-22T21:31:52.961Z,13.00
2022-09-22T21:34:19.817Z,13.10
2022-09-22T21:36:46.782Z,12.32
2022-09-22T21:39:13.435Z,12.25
2022-09-22T21:41:40.083Z,12.82
2022-09-22T21:44:07.227Z,13.32
2022-09-22T21:46:37.010Z,13.27
2022-09-22T21:49:04.211Z,13.70
2022-09-22T21:51:34.229Z,13.70
2022-09-22T21:54:05.252Z,13.02
2022-09-22T21:56:33.574Z,13.10
2022-09-22T21:59:02.290Z,13.70
2022-09-22T22:01:37.662Z,13.57
2022-09-22T22:04:07.856Z,13.25
2022-09-22T22:06:41.938Z,12.77
2022-09-22T22:09:14.511Z,14.00
2022-09-22T22:11:45.238Z,12.90
2022-09-22T22:14:13.867Z,13.18
2022-09-22T22:16:46.593Z,13.43
2022-09-22T22:19:17.031Z,13.57
2022-09-22T22:21:44.286Z,13.77
2022-09-22T22:24:21.885Z,13.48
2022-09-22T22:26:54.894Z,13.40
2022-09-22T22:29:23.295Z,13.82
2022-09-22T22:31:51.490Z,14.38
2022-09-22T22:34:22.625Z,13.88
2022-09-22T22:36:49.709Z,13.23
2022-09-22T22:39:16.758Z,13.00
2022-09-22T22:41:44.388Z,13.00
2022-09-22T22:44:12.255Z,12.70
2022-09-22T22:46:38.925Z,13.60
2022-09-22T22:49:07.552Z,13.63
2022-09-22T22:51:35.985Z,13.07
2022-09-22T22:54:02.755Z,12.18
2022-09-22T22:56:32.147Z,12.90
2022-09-22T22:58:59.180Z,12.70
2022-09-22T23:01:31.457Z,13.15
2022-09-22T23:04:07.156Z,13.18
2022-09-22T23:06:36.293Z,13.52
2022-09-22T23:09:04.253Z,13.57
2022-09-22T23:11:35.760Z,14.00
2022-09-22T23:14:03.916Z,13.23
2022-09-22T23:16:33.043Z,13.98
2022-09-22T23:19:01.695Z,13.63
2022-09-22T23:21:32.595Z,13.98
2022-09-22T23:24:00.900Z,14.15
2022-09-22T23:26:29.341Z,14.68
2022-09-22T23:28:59.862Z,14.32
2022-09-22T23:31:27.648Z,14.60
2022-09-22T23:33:54.867Z,15.20
2022-09-22T23:36:24.242Z,14.88
2022-09-22T23:39:04.787Z,15.52
2022-09-22T23:41:33.399Z,15.07
2022-09-22T23:44:00.430Z,15.60
2022-09-22T23:46:27.124Z,15.38
2022-09-22T23:48:55.305Z,15.23
2022-09-22T23:51:22.037Z,15.27
2022-09-22T23:53:48.645Z,15.05
2022-09-22T23:56:15.290Z,15.77
2022-09-22T23:58:42.160Z,15.65
